sensor_id;sensor_type;location;lat;lon;timestamp;pressure;altitude;pressure_sealevel;temperature;humidity
70544;BME280;58097;48.364;-1.224;2022-09-28T00:01:17;98227.53;;;14.34;83.11
70544;BME280;58097;48.364;-1.224;2022-09-28T00:03:43;98221.97;;;14.34;83.15
70544;BME280;58097;48.364;-1.224;2022-09-28T00:06:11;98230.09;;;14.36;83.10
70544;BME280;58097;48.364;-1.224;2022-09-28T00:08:37;98240.34;;;14.35;83.16
70544;BME280;58097;48.364;-1.224;2022-09-28T00:11:04;98232.63;;;14.37;83.27
70544;BME280;58097;48.364;-1.224;2022-09-28T00:13:30;98223.44;;;14.37;83.02
70544;BME280;58097;48.364;-1.224;2022-09-28T00:16:01;98223.75;;;14.29;82.91
70544;BME280;58097;48.364;-1.224;2022-09-28T00:18:26;98233.84;;;14.23;82.79
70544;BME280;58097;48.364;-1.224;2022-09-28T00:21:00;98228.28;;;14.23;82.72
70544;BME280;58097;48.364;-1.224;2022-09-28T00:23:25;98223.16;;;14.20;82.89
70544;BME280;58097;48.364;-1.224;2022-09-28T00:25:51;98225.94;;;14.20;82.57
70544;BME280;58097;48.364;-1.224;2022-09-28T00:28:16;98219.13;;;14.16;82.66
70544;BME280;58097;48.364;-1.224;2022-09-28T00:30:41;98216.84;;;14.06;82.81
70544;BME280;58097;48.364;-1.224;2022-09-28T00:33:07;98225.41;;;14.05;82.81
70544;BME280;58097;48.364;-1.224;2022-09-28T00:35:32;98223.09;;;14.02;82.73
70544;BME280;58097;48.364;-1.224;2022-09-28T00:37:58;98221.59;;;13.99;82.73
70544;BME280;58097;48.364;-1.224;2022-09-28T00:40:23;98215.44;;;13.97;82.58
70544;BME280;58097;48.364;-1.224;2022-09-28T00:42:48;98221.44;;;13.94;82.65
70544;BME280;58097;48.364;-1.224;2022-09-28T00:45:14;98225.28;;;13.93;82.58
70544;BME280;58097;48.364;-1.224;2022-09-28T00:47:48;98225.50;;;13.91;82.74
70544;BME280;58097;48.364;-1.224;2022-09-28T00:50:21;98216.56;;;13.89;82.35
70544;BME280;58097;48.364;-1.224;2022-09-28T00:55:21;98205.66;;;13.88;82.70
70544;BME280;58097;48.364;-1.224;2022-09-28T00:57:56;98202.00;;;13.87;82.47
70544;BME280;58097;48.364;-1.224;2022-09-28T01:00:22;98199.25;;;13.87;82.67
70544;BME280;58097;48.364;-1.224;2022-09-28T01:02:48;98200.53;;;13.85;82.38
70544;BME280;58097;48.364;-1.224;2022-09-28T01:05:13;98205.88;;;13.86;82.50
70544;BME280;58097;48.364;-1.224;2022-09-28T01:07:41;98203.31;;;13.85;82.60
70544;BME280;58097;48.364;-1.224;2022-09-28T01:10:08;98193.06;;;13.85;82.58
70544;BME280;58097;48.364;-1.224;2022-09-28T01:12:33;98197.53;;;13.86;82.43
70544;BME280;58097;48.364;-1.224;2022-09-28T01:14:59;98201.16;;;13.87;82.63
70544;BME280;58097;48.364;-1.224;2022-09-28T01:28:46;98189.25;;;13.80;82.43
70544;BME280;58097;48.364;-1.224;2022-09-28T01:31:15;98186.72;;;13.78;82.69
70544;BME280;58097;48.364;-1.224;2022-09-28T01:33:49;98181.59;;;13.75;82.48
70544;BME280;58097;48.364;-1.224;2022-09-28T01:36:43;98171.81;;;13.73;82.68
70544;BME280;58097;48.364;-1.224;2022-09-28T01:39:17;98175.44;;;13.73;82.44
70544;BME280;58097;48.364;-1.224;2022-09-28T01:41:48;98165.84;;;13.69;82.85
70544;BME280;58097;48.364;-1.224;2022-09-28T01:44:16;98174.22;;;13.62;82.85
70544;BME280;58097;48.364;-1.224;2022-09-28T01:46:46;98179.78;;;13.62;82.93
70544;BME280;58097;48.364;-1.224;2022-09-28T01:51:46;98187.50;;;13.54;82.91
70544;BME280;58097;48.364;-1.224;2022-09-28T01:54:36;98181.50;;;13.57;83.04
70544;BME280;58097;48.364;-1.224;2022-09-28T01:57:13;98192.19;;;13.53;83.26
70544;BME280;58097;48.364;-1.224;2022-09-28T01:59:43;98190.72;;;13.51;83.29
70544;BME280;58097;48.364;-1.224;2022-09-28T02:02:13;98188.38;;;13.48;83.29
70544;BME280;58097;48.364;-1.224;2022-09-28T02:07:19;98160.25;;;13.44;83.42
70544;BME280;58097;48.364;-1.224;2022-09-28T02:09:51;98174.34;;;13.43;83.28
70544;BME280;58097;48.364;-1.224;2022-09-28T02:12:28;98176.44;;;13.47;83.45
70544;BME280;58097;48.364;-1.224;2022-09-28T02:15:00;98177.09;;;13.43;83.41
70544;BME280;58097;48.364;-1.224;2022-09-28T02:17:30;98171.78;;;13.41;83.41
70544;BME280;58097;48.364;-1.224;2022-09-28T02:19:55;98169.22;;;13.40;83.24
70544;BME280;58097;48.364;-1.224;2022-09-28T02:22:27;98170.31;;;13.39;83.20
70544;BME280;58097;48.364;-1.224;2022-09-28T02:28:12;98182.53;;;13.24;82.93
70544;BME280;58097;48.364;-1.224;2022-09-28T02:30:39;98188.50;;;13.21;83.05
70544;BME280;58097;48.364;-1.224;2022-09-28T02:35:57;98199.19;;;13.18;82.85
70544;BME280;58097;48.364;-1.224;2022-09-28T02:38:23;98191.06;;;13.16;83.19
70544;BME280;58097;48.364;-1.224;2022-09-28T02:46:28;98185.16;;;12.99;83.42
70544;BME280;58097;48.364;-1.224;2022-09-28T02:57:44;98175.78;;;12.94;83.28
70544;BME280;58097;48.364;-1.224;2022-09-28T03:00:20;98173.88;;;12.94;83.56
70544;BME280;58097;48.364;-1.224;2022-09-28T03:11:39;98187.91;;;12.99;83.23
70544;BME280;58097;48.364;-1.224;2022-09-28T03:14:07;98184.94;;;13.01;83.18
70544;BME280;58097;48.364;-1.224;2022-09-28T03:16:33;98196.69;;;13.03;83.17
70544;BME280;58097;48.364;-1.224;2022-09-28T03:18:59;98196.44;;;12.98;83.59
70544;BME280;58097;48.364;-1.224;2022-09-28T03:21:24;98196.66;;;12.96;83.15
70544;BME280;58097;48.364;-1.224;2022-09-28T03:23:49;98207.13;;;12.94;83.72
70544;BME280;58097;48.364;-1.224;2022-09-28T03:26:15;98211.59;;;12.95;83.41
70544;BME280;58097;48.364;-1.224;2022-09-28T03:28:41;98214.16;;;12.97;83.12
70544;BME280;58097;48.364;-1.224;2022-09-28T03:31:06;98207.97;;;12.95;83.79
70544;BME280;58097;48.364;-1.224;2022-09-28T03:33:32;98209.06;;;12.94;83.25
70544;BME280;58097;48.364;-1.224;2022-09-28T03:35:58;98209.06;;;12.94;83.46
70544;BME280;58097;48.364;-1.224;2022-09-28T03:38:23;98215.00;;;12.97;83.11
70544;BME280;58097;48.364;-1.224;2022-09-28T03:40:56;98214.59;;;12.94;83.52
70544;BME280;58097;48.364;-1.224;2022-09-28T03:43:23;98217.81;;;12.91;83.59
70544;BME280;58097;48.364;-1.224;2022-09-28T03:45:59;98222.91;;;12.94;83.29
70544;BME280;58097;48.364;-1.224;2022-09-28T03:48:30;98223.75;;;12.94;83.11
70544;BME280;58097;48.364;-1.224;2022-09-28T03:50:57;98232.94;;;12.95;83.23
70544;BME280;58097;48.364;-1.224;2022-09-28T03:53:24;98234.63;;;12.96;83.38
70544;BME280;58097;48.364;-1.224;2022-09-28T03:55:50;98230.16;;;12.95;83.14
70544;BME280;58097;48.364;-1.224;2022-09-28T03:58:18;98234.63;;;12.96;83.07
70544;BME280;58097;48.364;-1.224;2022-09-28T04:00:44;98245.50;;;12.97;83.13
70544;BME280;58097;48.364;-1.224;2022-09-28T04:03:09;98246.13;;;12.99;83.33
70544;BME280;58097;48.364;-1.224;2022-09-28T04:05:35;98244.88;;;13.02;83.11
70544;BME280;58097;48.364;-1.224;2022-09-28T04:08:00;98249.75;;;13.00;83.29
70544;BME280;58097;48.364;-1.224;2022-09-28T04:10:26;98240.41;;;13.01;83.21
70544;BME280;58097;48.364;-1.224;2022-09-28T04:12:57;98236.97;;;12.99;83.36
70544;BME280;58097;48.364;-1.224;2022-09-28T04:15:23;98239.13;;;12.97;83.22
70544;BME280;58097;48.364;-1.224;2022-09-28T04:17:50;98240.41;;;12.94;83.23
70544;BME280;58097;48.364;-1.224;2022-09-28T04:20:15;98234.63;;;12.96;83.20
70544;BME280;58097;48.364;-1.224;2022-09-28T04:22:41;98236.97;;;12.99;83.29
70544;BME280;58097;48.364;-1.224;2022-09-28T04:25:06;98247.66;;;13.02;83.03
70544;BME280;58097;48.364;-1.224;2022-09-28T04:27:32;98238.25;;;13.03;82.98
70544;BME280;58097;48.364;-1.224;2022-09-28T04:30:16;98248.91;;;13.06;83.01
70544;BME280;58097;48.364;-1.224;2022-09-28T04:32:42;98253.63;;;13.06;83.33
70544;BME280;58097;48.364;-1.224;2022-09-28T04:35:08;98254.91;;;13.03;83.06
70544;BME280;58097;48.364;-1.224;2022-09-28T04:37:35;98257.88;;;12.95;82.99
70544;BME280;58097;48.364;-1.224;2022-09-28T04:40:01;98261.94;;;12.92;83.15
70544;BME280;58097;48.364;-1.224;2022-09-28T04:42:26;98265.38;;;12.88;83.04
70544;BME280;58097;48.364;-1.224;2022-09-28T04:44:51;98259.81;;;12.88;83.01
70544;BME280;58097;48.364;-1.224;2022-09-28T04:47:17;98257.91;;;12.88;82.74
70544;BME280;58097;48.364;-1.224;2022-09-28T04:49:42;98255.78;;;12.90;82.52
70544;BME280;58097;48.364;-1.224;2022-09-28T04:52:08;98255.97;;;12.89;82.33
70544;BME280;58097;48.364;-1.224;2022-09-28T04:54:34;98258.75;;;12.89;82.31
70544;BME280;58097;48.364;-1.224;2022-09-28T04:57:00;98262.81;;;12.86;81.99
70544;BME280;58097;48.364;-1.224;2022-09-28T04:59:27;98263.03;;;12.85;82.10
70544;BME280;58097;48.364;-1.224;2022-09-28T05:01:52;98265.16;;;12.83;82.09
70544;BME280;58097;48.364;-1.224;2022-09-28T05:04:18;98264.09;;;12.84;81.97
70544;BME280;58097;48.364;-1.224;2022-09-28T05:06:43;98262.41;;;12.83;82.03
70544;BME280;58097;48.364;-1.224;2022-09-28T05:09:08;98258.78;;;12.82;81.78
70544;BME280;58097;48.364;-1.224;2022-09-28T05:11:34;98253.44;;;12.81;81.86
70544;BME280;58097;48.364;-1.224;2022-09-28T05:13:59;98263.69;;;12.80;81.87
70544;BME280;58097;48.364;-1.224;2022-09-28T05:16:25;98255.59;;;12.79;81.86
70544;BME280;58097;48.364;-1.224;2022-09-28T05:18:57;98253.03;;;12.77;82.04
70544;BME280;58097;48.364;-1.224;2022-09-28T05:21:22;98249.41;;;12.77;81.79
70544;BME280;58097;48.364;-1.224;2022-09-28T05:23:49;98248.78;;;12.75;81.77
70544;BME280;58097;48.364;-1.224;2022-09-28T05:26:15;98250.91;;;12.73;81.78
70544;BME280;58097;48.364;-1.224;2022-09-28T05:28:40;98243.63;;;12.71;81.77
70544;BME280;58097;48.364;-1.224;2022-09-28T05:31:06;98244.31;;;12.74;81.72
70544;BME280;58097;48.364;-1.224;2022-09-28T05:33:31;98240.69;;;12.73;81.75
70544;BME280;58097;48.364;-1.224;2022-09-28T05:35:57;98243.63;;;12.71;81.79
70544;BME280;58097;48.364;-1.224;2022-09-28T05:38:23;98243.84;;;12.70;81.81
70544;BME280;58097;48.364;-1.224;2022-09-28T05:40:49;98249.19;;;12.71;81.86
70544;BME280;58097;48.364;-1.224;2022-09-28T05:43:15;98252.63;;;12.74;81.68
70544;BME280;58097;48.364;-1.224;2022-09-28T05:45:40;98252.63;;;12.74;81.85
70544;BME280;58097;48.364;-1.224;2022-09-28T05:48:06;98248.78;;;12.75;81.84
70544;BME280;58097;48.364;-1.224;2022-09-28T05:50:31;98247.06;;;12.74;81.81
70544;BME280;58097;48.364;-1.224;2022-09-28T05:53:02;98255.38;;;12.74;81.90
70544;BME280;58097;48.364;-1.224;2022-09-28T05:55:28;98254.53;;;12.73;81.90
70544;BME280;58097;48.364;-1.224;2022-09-28T05:57:58;98245.38;;;12.73;81.83
70544;BME280;58097;48.364;-1.224;2022-09-28T06:00:25;98249.19;;;12.71;81.84
70544;BME280;58097;48.364;-1.224;2022-09-28T06:02:55;98248.16;;;12.73;81.89
70544;BME280;58097;48.364;-1.224;2022-09-28T06:05:21;98259.22;;;12.73;81.81
70544;BME280;58097;48.364;-1.224;2022-09-28T06:07:46;98252.63;;;12.74;81.83
70544;BME280;58097;48.364;-1.224;2022-09-28T06:10:12;98256.03;;;12.76;81.75
70544;BME280;58097;48.364;-1.224;2022-09-28T06:12:37;98264.56;;;12.74;81.74
70544;BME280;58097;48.364;-1.224;2022-09-28T06:15:03;98256.25;;;12.74;81.75
70544;BME280;58097;48.364;-1.224;2022-09-28T06:17:28;98262.63;;;12.75;81.86
70544;BME280;58097;48.364;-1.224;2022-09-28T06:19:53;98265.41;;;12.75;81.86
70544;BME280;58097;48.364;-1.224;2022-09-28T06:22:19;98271.81;;;12.75;81.83
70544;BME280;58097;48.364;-1.224;2022-09-28T06:24:44;98279.91;;;12.77;82.06
70544;BME280;58097;48.364;-1.224;2022-09-28T06:27:09;98278.63;;;12.79;81.89
70544;BME280;58097;48.364;-1.224;2022-09-28T06:29:34;98284.38;;;12.78;81.81
70544;BME280;58097;48.364;-1.224;2022-09-28T06:32:00;98285.66;;;12.75;82.11
70544;BME280;58097;48.364;-1.224;2022-09-28T06:34:25;98291.41;;;12.74;82.04
70544;BME280;58097;48.364;-1.224;2022-09-28T06:36:51;98299.72;;;12.74;82.14
70544;BME280;58097;48.364;-1.224;2022-09-28T06:39:16;98295.44;;;12.71;81.79
70544;BME280;58097;48.364;-1.224;2022-09-28T06:41:42;98300.81;;;12.73;82.11
70544;BME280;58097;48.364;-1.224;2022-09-28T06:44:07;98304.22;;;12.75;82.00
70544;BME280;58097;48.364;-1.224;2022-09-28T06:46:32;98307.84;;;12.75;82.11
70544;BME280;58097;48.364;-1.224;2022-09-28T06:48:58;98314.22;;;12.76;82.11
70544;BME280;58097;48.364;-1.224;2022-09-28T06:51:23;98310.38;;;12.77;82.19
70544;BME280;58097;48.364;-1.224;2022-09-28T06:53:49;98315.50;;;12.73;82.09
70544;BME280;58097;48.364;-1.224;2022-09-28T06:56:18;98322.97;;;12.73;82.08
70544;BME280;58097;48.364;-1.224;2022-09-28T06:58:45;98320.38;;;12.71;82.19
70544;BME280;58097;48.364;-1.224;2022-09-28T07:01:10;98328.06;;;12.69;82.11
70544;BME280;58097;48.364;-1.224;2022-09-28T07:03:36;98320.38;;;12.71;81.96
70544;BME280;58097;48.364;-1.224;2022-09-28T07:06:01;98322.97;;;12.73;82.14
70544;BME280;58097;48.364;-1.224;2022-09-28T07:08:28;98324.69;;;12.74;81.78
70544;BME280;58097;48.364;-1.224;2022-09-28T07:10:54;98327.44;;;12.74;82.04
70544;BME280;58097;48.364;-1.224;2022-09-28T07:13:24;98334.91;;;12.73;81.89
70544;BME280;58097;48.364;-1.224;2022-09-28T07:15:59;98330.22;;;12.74;81.88
70544;BME280;58097;48.364;-1.224;2022-09-28T07:18:26;98334.69;;;12.75;82.02
70544;BME280;58097;48.364;-1.224;2022-09-28T07:20:54;98332.56;;;12.77;81.89
70544;BME280;58097;48.364;-1.224;2022-09-28T07:23:21;98337.03;;;12.78;82.09
70544;BME280;58097;48.364;-1.224;2022-09-28T07:25:47;98332.34;;;12.78;81.95
70544;BME280;58097;48.364;-1.224;2022-09-28T07:28:13;98330.22;;;12.80;82.03
70544;BME280;58097;48.364;-1.224;2022-09-28T07:30:38;98337.25;;;12.83;82.03
70544;BME280;58097;48.364;-1.224;2022-09-28T07:33:05;98339.59;;;12.86;81.82
70544;BME280;58097;48.364;-1.224;2022-09-28T07:35:32;98334.47;;;12.89;81.99
70544;BME280;58097;48.364;-1.224;2022-09-28T07:38:04;98337.88;;;12.91;81.94
70544;BME280;58097;48.364;-1.224;2022-09-28T07:40:30;98342.97;;;12.94;81.84
70544;BME280;58097;48.364;-1.224;2022-09-28T07:43:15;98341.69;;;12.97;81.98
70544;BME280;58097;48.364;-1.224;2022-09-28T07:45:46;98335.09;;;12.98;81.79
70544;BME280;58097;48.364;-1.224;2022-09-28T07:48:12;98342.56;;;12.97;81.74
70544;BME280;58097;48.364;-1.224;2022-09-28T07:50:49;98343.41;;;12.98;81.87
70544;BME280;58097;48.364;-1.224;2022-09-28T07:53:17;98337.22;;;12.96;81.81
70544;BME280;58097;48.364;-1.224;2022-09-28T07:55:52;98341.69;;;12.97;81.88
70544;BME280;58097;48.364;-1.224;2022-09-28T07:58:18;98345.09;;;12.99;81.77
70544;BME280;58097;48.364;-1.224;2022-09-28T08:00:45;98341.94;;;13.02;81.82
70544;BME280;58097;48.364;-1.224;2022-09-28T08:03:15;98344.06;;;13.07;81.72
70544;BME280;58097;48.364;-1.224;2022-09-28T08:05:42;98350.47;;;13.07;81.89
70544;BME280;58097;48.364;-1.224;2022-09-28T08:08:08;98350.03;;;13.10;81.90
70544;BME280;58097;48.364;-1.224;2022-09-28T08:10:34;98346.19;;;13.11;81.63
70544;BME280;58097;48.364;-1.224;2022-09-28T08:12:59;98344.88;;;13.14;81.87
70544;BME280;58097;48.364;-1.224;2022-09-28T08:15:26;98348.97;;;13.18;81.78
70544;BME280;58097;48.364;-1.224;2022-09-28T08:17:52;98352.38;;;13.20;81.73
70544;BME280;58097;48.364;-1.224;2022-09-28T08:20:17;98358.78;;;13.20;81.72
70544;BME280;58097;48.364;-1.224;2022-09-28T08:23:06;98357.69;;;13.21;81.79
70544;BME280;58097;48.364;-1.224;2022-09-28T08:25:32;98361.97;;;13.17;81.71
70544;BME280;58097;48.364;-1.224;2022-09-28T08:27:57;98362.41;;;13.21;81.73
70544;BME280;58097;48.364;-1.224;2022-09-28T08:30:24;98366.47;;;13.18;81.65
70544;BME280;58097;48.364;-1.224;2022-09-28T08:32:50;98366.88;;;13.22;81.70
70544;BME280;58097;48.364;-1.224;2022-09-28T08:35:16;98363.44;;;13.26;81.74
70544;BME280;58097;48.364;-1.224;2022-09-28T08:37:41;98367.72;;;13.29;81.92
70544;BME280;58097;48.364;-1.224;2022-09-28T08:40:17;98364.31;;;13.33;81.76
70544;BME280;58097;48.364;-1.224;2022-09-28T08:42:43;98372.00;;;13.38;81.64
70544;BME280;58097;48.364;-1.224;2022-09-28T08:45:12;98378.16;;;13.40;81.59
70544;BME280;58097;48.364;-1.224;2022-09-28T08:48:04;98376.47;;;13.39;81.58
70544;BME280;58097;48.364;-1.224;2022-09-28T08:50:59;98372.41;;;13.42;81.28
70544;BME280;58097;48.364;-1.224;2022-09-28T08:55:56;98371.34;;;13.43;81.30
70544;BME280;58097;48.364;-1.224;2022-09-28T08:58:25;98375.59;;;13.45;81.68
70544;BME280;58097;48.364;-1.224;2022-09-28T09:00:54;98376.63;;;13.51;81.31
70544;BME280;58097;48.364;-1.224;2022-09-28T09:03:25;98381.34;;;13.50;81.46
70544;BME280;58097;48.364;-1.224;2022-09-28T09:08:40;98372.38;;;13.48;80.21
70544;BME280;58097;48.364;-1.224;2022-09-28T09:14:26;98382.22;;;13.44;80.28
70544;BME280;58097;48.364;-1.224;2022-09-28T09:17:44;98381.13;;;13.45;80.28
70544;BME280;58097;48.364;-1.224;2022-09-28T09:19:55;98384.34;;;13.49;80.51
70544;BME280;58097;48.364;-1.224;2022-09-28T09:22:59;98383.22;;;13.56;80.27
70544;BME280;58097;48.364;-1.224;2022-09-28T09:25:47;98384.72;;;13.66;80.70
70544;BME280;58097;48.364;-1.224;2022-09-28T09:31:23;98384.41;;;13.87;80.44
70544;BME280;58097;48.364;-1.224;2022-09-28T09:40:07;98394.03;;;13.91;80.03
70544;BME280;58097;48.364;-1.224;2022-09-28T09:55:51;98380.16;;;13.84;79.87
70544;BME280;58097;48.364;-1.224;2022-09-28T09:58:34;98384.63;;;13.85;79.37
70544;BME280;58097;48.364;-1.224;2022-09-28T10:01:07;98381.44;;;13.88;79.90
70544;BME280;58097;48.364;-1.224;2022-09-28T10:03:35;98384.84;;;13.90;79.75
70544;BME280;58097;48.364;-1.224;2022-09-28T10:06:11;98377.38;;;13.91;78.75
70544;BME280;58097;48.364;-1.224;2022-09-28T10:08:42;98381.66;;;13.87;79.04
70544;BME280;58097;48.364;-1.224;2022-09-28T10:11:13;98381.88;;;13.85;78.81
70544;BME280;58097;48.364;-1.224;2022-09-28T10:13:39;98386.56;;;13.85;79.34
70544;BME280;58097;48.364;-1.224;2022-09-28T10:16:06;98389.34;;;13.85;79.36
70544;BME280;58097;48.364;-1.224;2022-09-28T10:18:32;98392.56;;;13.88;78.88
70544;BME280;58097;48.364;-1.224;2022-09-28T10:20:58;98395.97;;;13.90;78.97
70544;BME280;58097;48.364;-1.224;2022-09-28T10:23:27;98390.19;;;13.92;79.46
70544;BME280;58097;48.364;-1.224;2022-09-28T10:25:58;98397.22;;;13.94;79.63
70544;BME280;58097;48.364;-1.224;2022-09-28T10:28:44;98394.03;;;13.91;78.98
70544;BME280;58097;48.364;-1.224;2022-09-28T10:31:48;98391.72;;;13.88;79.11
70544;BME280;58097;48.364;-1.224;2022-09-28T10:34:16;98390.19;;;13.85;79.09
70544;BME280;58097;48.364;-1.224;2022-09-28T10:39:33;98394.28;;;13.76;78.38
70544;BME280;58097;48.364;-1.224;2022-09-28T10:42:05;98387.28;;;13.67;78.52
70544;BME280;58097;48.364;-1.224;2022-09-28T10:44:33;98383.88;;;13.65;78.68
70544;BME280;58097;48.364;-1.224;2022-09-28T10:47:02;98388.16;;;13.61;79.03
70544;BME280;58097;48.364;-1.224;2022-09-28T10:49:38;98380.25;;;13.58;79.55
70544;BME280;58097;48.364;-1.224;2022-09-28T10:54:56;98382.44;;;13.43;78.99
70544;BME280;58097;48.364;-1.224;2022-09-28T10:57:35;98394.19;;;13.38;79.45
70544;BME280;58097;48.364;-1.224;2022-09-28T11:00:02;98389.91;;;13.29;79.37
70544;BME280;58097;48.364;-1.224;2022-09-28T11:02:36;98386.06;;;13.23;79.54
70544;BME280;58097;48.364;-1.224;2022-09-28T11:05:05;98387.16;;;13.22;79.71
70544;BME280;58097;48.364;-1.224;2022-09-28T11:07:33;98382.66;;;13.21;79.92
70544;BME280;58097;48.364;-1.224;2022-09-28T11:10:22;98376.88;;;13.16;78.93
70544;BME280;58097;48.364;-1.224;2022-09-28T11:12:51;98387.78;;;13.11;79.23
70544;BME280;58097;48.364;-1.224;2022-09-28T11:15:20;98388.84;;;13.10;79.59
70544;BME280;58097;48.364;-1.224;2022-09-28T11:17:46;98385.66;;;13.13;79.46
70544;BME280;58097;48.364;-1.224;2022-09-28T11:22:59;98394.41;;;13.30;79.92
70544;BME280;58097;48.364;-1.224;2022-09-28T11:25:26;98377.75;;;13.37;79.93
70544;BME280;58097;48.364;-1.224;2022-09-28T11:30:25;98374.94;;;13.50;79.98
70544;BME280;58097;48.364;-1.224;2022-09-28T11:38:28;98378.53;;;13.57;79.32
70544;BME280;58097;48.364;-1.224;2022-09-28T11:52:27;98377.91;;;13.55;78.62
70544;BME280;58097;48.364;-1.224;2022-09-28T11:57:37;98373.66;;;13.46;78.53
70544;BME280;58097;48.364;-1.224;2022-09-28T12:00:15;98372.19;;;13.43;78.70
70544;BME280;58097;48.364;-1.224;2022-09-28T12:10:25;98365.78;;;13.43;78.85
70544;BME280;58097;48.364;-1.224;2022-09-28T12:13:15;98365.16;;;13.41;78.92
70544;BME280;58097;48.364;-1.224;2022-09-28T12:15:58;98364.28;;;13.47;79.23
70544;BME280;58097;48.364;-1.224;2022-09-28T12:24:08;98349.72;;;13.58;78.63
70544;BME280;58097;48.364;-1.224;2022-09-28T12:29:17;98355.28;;;13.51;78.71
70544;BME280;58097;48.364;-1.224;2022-09-28T12:34:31;98354.41;;;13.64;79.14
70544;BME280;58097;48.364;-1.224;2022-09-28T12:37:11;98355.03;;;13.66;78.92
70544;BME280;58097;48.364;-1.224;2022-09-28T13:01:35;98334.53;;;14.12;79.08
70544;BME280;58097;48.364;-1.224;2022-09-28T13:09:26;98334.91;;;14.22;79.04
70544;BME280;58097;48.364;-1.224;2022-09-28T13:20:46;98333.66;;;14.18;78.21
70544;BME280;58097;48.364;-1.224;2022-09-28T13:23:20;98319.59;;;14.06;78.38
70544;BME280;58097;48.364;-1.224;2022-09-28T13:25:56;98322.22;;;14.01;78.63
70544;BME280;58097;48.364;-1.224;2022-09-28T13:28:23;98322.88;;;13.97;78.97
70544;BME280;58097;48.364;-1.224;2022-09-28T13:30:51;98323.56;;;13.92;78.68
70544;BME280;58097;48.364;-1.224;2022-09-28T13:33:24;98322.91;;;13.90;78.95
70544;BME280;58097;48.364;-1.224;2022-09-28T13:35:53;98323.13;;;13.88;79.01
70544;BME280;58097;48.364;-1.224;2022-09-28T13:55:16;98317.69;;;13.62;79.88
70544;BME280;58097;48.364;-1.224;2022-09-28T13:57:56;98311.09;;;13.63;79.68
70544;BME280;58097;48.364;-1.224;2022-09-28T14:03:23;98314.75;;;13.44;78.25
70544;BME280;58097;48.364;-1.224;2022-09-28T14:08:31;98306.25;;;13.39;78.40
70544;BME280;58097;48.364;-1.224;2022-09-28T14:16:26;98306.25;;;13.39;78.45
70544;BME280;58097;48.364;-1.224;2022-09-28T14:19:17;98310.31;;;13.36;78.29
70544;BME280;58097;48.364;-1.224;2022-09-28T14:29:37;98296.63;;;13.41;78.32
70544;BME280;58097;48.364;-1.224;2022-09-28T14:34:42;98300.25;;;13.42;78.36
70544;BME280;58097;48.364;-1.224;2022-09-28T14:37:24;98305.38;;;13.45;78.35
70544;BME280;58097;48.364;-1.224;2022-09-28T14:45:48;98306.38;;;13.57;78.61
70544;BME280;58097;48.364;-1.224;2022-09-28T14:48:18;98302.53;;;13.58;78.45
70544;BME280;58097;48.364;-1.224;2022-09-28T14:50:44;98294.19;;;13.58;78.45
70544;BME280;58097;48.364;-1.224;2022-09-28T14:53:17;98293.34;;;13.57;78.47
70544;BME280;58097;48.364;-1.224;2022-09-28T14:55:49;98303.19;;;13.60;78.26
70544;BME280;58097;48.364;-1.224;2022-09-28T14:58:23;98289.31;;;13.60;77.93
70544;BME280;58097;48.364;-1.224;2022-09-28T15:00:55;98299.34;;;13.61;78.34
70544;BME280;58097;48.364;-1.224;2022-09-28T15:03:23;98303.59;;;13.63;78.39
70544;BME280;58097;48.364;-1.224;2022-09-28T15:05:48;98305.31;;;13.64;78.17
70544;BME280;58097;48.364;-1.224;2022-09-28T15:08:14;98311.31;;;13.61;78.18
70544;BME280;58097;48.364;-1.224;2022-09-28T15:10:45;98307.44;;;13.56;77.97
70544;BME280;58097;48.364;-1.224;2022-09-28T15:15:48;98305.97;;;13.53;78.18
70544;BME280;58097;48.364;-1.224;2022-09-28T15:18:40;98304.03;;;13.54;78.44
70544;BME280;58097;48.364;-1.224;2022-09-28T15:21:10;98296.78;;;13.53;78.44
70544;BME280;58097;48.364;-1.224;2022-09-28T15:23:42;98296.34;;;13.56;78.49
70544;BME280;58097;48.364;-1.224;2022-09-28T15:26:34;98296.78;;;13.59;78.28
70544;BME280;58097;48.364;-1.224;2022-09-28T15:28:59;98302.97;;;13.61;78.29
70544;BME280;58097;48.364;-1.224;2022-09-28T15:31:32;98291.25;;;13.59;78.42
70544;BME280;58097;48.364;-1.224;2022-09-28T15:33:58;98298.72;;;13.59;78.13
70544;BME280;58097;48.364;-1.224;2022-09-28T15:36:43;98295.06;;;13.58;78.40
70544;BME280;58097;48.364;-1.224;2022-09-28T15:39:25;98295.94;;;13.59;78.10
70544;BME280;58097;48.364;-1.224;2022-09-28T15:41:53;98294.19;;;13.58;78.31
70544;BME280;58097;48.364;-1.224;2022-09-28T15:49:43;98299.78;;;13.51;78.03
70544;BME280;58097;48.364;-1.224;2022-09-28T15:52:42;98291.91;;;13.48;78.37
70544;BME280;58097;48.364;-1.224;2022-09-28T15:57:41;98290.16;;;13.54;78.66
70544;BME280;58097;48.364;-1.224;2022-09-28T16:08:01;98290.16;;;13.60;78.81
70544;BME280;58097;48.364;-1.224;2022-09-28T16:10:33;98286.09;;;13.63;78.88
70544;BME280;58097;48.364;-1.224;2022-09-28T16:13:14;98285.03;;;13.64;78.83
70544;BME280;58097;48.364;-1.224;2022-09-28T16:15:40;98295.50;;;13.62;78.83
70544;BME280;58097;48.364;-1.224;2022-09-28T16:20:38;98302.19;;;13.41;79.17
70544;BME280;58097;48.364;-1.224;2022-09-28T16:23:21;98296.03;;;13.32;79.32
70544;BME280;58097;48.364;-1.224;2022-09-28T16:25:52;98291.31;;;13.26;79.32
70544;BME280;58097;48.364;-1.224;2022-09-28T16:33:52;98287.06;;;13.24;79.57
70544;BME280;58097;48.364;-1.224;2022-09-28T16:36:19;98292.19;;;13.27;79.50
70544;BME280;58097;48.364;-1.224;2022-09-28T16:38:46;98289.84;;;13.30;79.66
70544;BME280;58097;48.364;-1.224;2022-09-28T16:41:13;98293.25;;;13.32;79.73
70544;BME280;58097;48.364;-1.224;2022-09-28T16:43:44;98293.22;;;13.39;79.74
70544;BME280;58097;48.364;-1.224;2022-09-28T16:46:12;98303.19;;;13.53;79.72
70544;BME280;58097;48.364;-1.224;2022-09-28T16:48:42;98306.78;;;13.67;79.79
70544;BME280;58097;48.364;-1.224;2022-09-28T16:51:21;98305.19;;;13.84;79.88
70544;BME280;58097;48.364;-1.224;2022-09-28T16:53:47;98301.28;;;13.99;80.22
70544;BME280;58097;48.364;-1.224;2022-09-28T16:56:32;98308.06;;;14.09;79.65
70544;BME280;58097;48.364;-1.224;2022-09-28T16:58:58;98313.78;;;14.14;79.29